createdAt,value
2018-02-20T00:01:29.873Z,6.63
2018-02-20T00:04:00.246Z,6.60
2018-02-20T00:06:33.444Z,6.39
2018-02-20T00:09:04.778Z,6.28
2018-02-20T00:11:35.302Z,6.25
2018-02-20T00:14:05.846Z,6.31
2018-02-20T00:16:38.740Z,6.27
2018-02-20T00:19:11.553Z,6.20
2018-02-20T00:24:24.393Z,5.91
2018-02-20T00:26:55.001Z,5.83
2018-02-20T00:29:25.215Z,5.75
2018-02-20T00:31:55.892Z,5.58
2018-02-20T00:34:26.671Z,5.33
2018-02-20T00:36:58.802Z,5.28
2018-02-20T00:39:31.093Z,5.29
2018-02-20T00:42:02.081Z,5.34
2018-02-20T00:44:32.428Z,5.39
2018-02-20T00:47:03.939Z,5.36
2018-02-20T00:49:38.669Z,5.26
2018-02-20T00:52:09.864Z,5.14
2018-02-20T00:54:40.102Z,5.02
2018-02-20T00:57:10.474Z,4.93
2018-02-20T00:59:42.011Z,4.87
2018-02-20T01:02:11.910Z,4.87
2018-02-20T01:04:42.911Z,4.86
2018-02-20T01:07:15.457Z,4.92
2018-02-20T01:09:46.396Z,4.91
2018-02-20T01:12:17.193Z,4.92
2018-02-20T01:14:48.240Z,4.88
2018-02-20T01:17:19.225Z,4.85
2018-02-20T01:19:49.975Z,4.87
2018-02-20T01:22:21.267Z,4.82
2018-02-20T01:24:52.007Z,4.82
2018-02-20T01:27:22.889Z,4.86
2018-02-20T01:29:54.187Z,4.80
2018-02-20T01:32:29.672Z,4.86
2018-02-20T01:35:03.539Z,4.83
2018-02-20T01:37:35.915Z,4.79
2018-02-20T01:40:09.262Z,4.79
2018-02-20T01:42:40.623Z,4.81
2018-02-20T01:45:19.087Z,4.81
2018-02-20T01:47:53.411Z,4.76
2018-02-20T01:50:26.186Z,4.77
2018-02-20T01:53:06.646Z,4.62
2018-02-20T01:55:39.223Z,4.51
2018-02-20T01:58:12.570Z,4.63
2018-02-20T02:00:53.491Z,4.62
2018-02-20T02:03:30.781Z,4.57
2018-02-20T02:06:06.958Z,4.43
2018-02-20T02:08:42.521Z,4.36
2018-02-20T02:11:18.468Z,4.22
2018-02-20T02:13:56.968Z,4.09
2018-02-20T02:16:34.596Z,4.16
2018-02-20T02:19:07.411Z,4.22
2018-02-20T02:24:31.581Z,4.12
2018-02-20T02:27:14.002Z,4.13
2018-02-20T02:29:49.893Z,4.10
2018-02-20T02:32:30.987Z,4.14
2018-02-20T02:35:06.305Z,4.12
2018-02-20T02:37:39.973Z,4.06
2018-02-20T02:40:14.423Z,4.09
2018-02-20T02:42:53.649Z,4.09
2018-02-20T02:45:31.640Z,4.04
2018-02-20T02:48:03.817Z,4.06
2018-02-20T02:50:39.594Z,4.10
2018-02-20T02:53:22.574Z,4.07
2018-02-20T02:55:57.580Z,4.03
2018-02-20T02:58:29.755Z,3.94
2018-02-20T03:01:00.620Z,3.85
2018-02-20T03:03:31.247Z,3.85
2018-02-20T03:06:01.613Z,3.93
2018-02-20T03:08:32.042Z,3.96
2018-02-20T03:11:02.992Z,3.92
2018-02-20T03:13:33.208Z,3.90
2018-02-20T03:16:05.009Z,3.90
2018-02-20T03:18:36.528Z,3.91
2018-02-20T03:21:07.907Z,3.84
2018-02-20T03:23:42.750Z,3.66
2018-02-20T03:26:22.931Z,3.59
2018-02-20T03:28:54.833Z,3.53
2018-02-20T03:31:26.507Z,3.46
2018-02-20T03:34:05.693Z,3.35
2018-02-20T03:36:38.403Z,3.44
2018-02-20T03:39:10.540Z,3.59
2018-02-20T03:41:45.431Z,3.72
2018-02-20T03:44:18.602Z,3.63
2018-02-20T03:46:49.619Z,3.57
2018-02-20T03:49:23.607Z,3.48
2018-02-20T03:52:03.183Z,3.53
2018-02-20T03:54:49.714Z,3.49
2018-02-20T03:57:24.874Z,3.46
2018-02-20T04:00:07.725Z,3.46
2018-02-20T04:02:45.426Z,3.40
2018-02-20T04:05:24.220Z,3.56
2018-02-20T04:07:58.022Z,3.64
2018-02-20T04:10:30.064Z,3.72
2018-02-20T04:13:03.208Z,3.85
2018-02-20T04:15:37.832Z,3.92
2018-02-20T04:18:16.018Z,3.95
2018-02-20T04:20:48.127Z,3.98
2018-02-20T04:23:22.771Z,4.05
2018-02-20T04:26:12.226Z,4.06
2018-02-20T04:28:48.231Z,4.07
2018-02-20T04:31:30.367Z,4.02
2018-02-20T04:34:12.386Z,3.92
2018-02-20T04:36:46.454Z,3.96
2018-02-20T04:39:23.488Z,3.88
2018-02-20T04:41:56.455Z,3.93
2018-02-20T04:44:31.795Z,3.92
2018-02-20T04:47:04.045Z,3.82
2018-02-20T04:49:41.244Z,3.77
2018-02-20T04:52:13.195Z,3.72
2018-02-20T04:54:52.737Z,3.70
2018-02-20T04:57:25.975Z,3.64
2018-02-20T05:00:04.511Z,3.59
2018-02-20T05:02:43.330Z,3.57
2018-02-20T05:05:19.209Z,3.42
2018-02-20T05:07:50.700Z,3.31
2018-02-20T05:10:21.029Z,3.33
2018-02-20T05:12:52.420Z,3.33
2018-02-20T05:15:23.197Z,3.37
2018-02-20T05:17:55.303Z,3.36
2018-02-20T05:20:25.715Z,3.39
2018-02-20T05:22:56.156Z,3.40
2018-02-20T05:25:35.250Z,3.37
2018-02-20T05:28:15.065Z,3.32
2018-02-20T05:30:52.639Z,3.26
2018-02-20T05:33:26.381Z,3.27
2018-02-20T05:35:57.928Z,3.24
2018-02-20T05:38:28.348Z,3.08
2018-02-20T05:40:58.484Z,3.02
2018-02-20T05:43:33.321Z,3.11
2018-02-20T05:46:11.095Z,3.14
2018-02-20T05:48:50.472Z,3.17
2018-02-20T05:51:25.683Z,3.10
2018-02-20T05:54:01.572Z,3.10
2018-02-20T05:56:34.950Z,3.08
2018-02-20T05:59:08.929Z,3.11
2018-02-20T06:01:41.664Z,3.04
2018-02-20T06:04:16.494Z,3.06
2018-02-20T06:06:48.812Z,3.10
2018-02-20T06:09:23.590Z,3.09
2018-02-20T06:11:57.984Z,3.12
2018-02-20T06:14:31.176Z,3.08
2018-02-20T06:17:07.723Z,3.03
2018-02-20T06:19:39.449Z,2.90
2018-02-20T06:22:14.118Z,2.92
2018-02-20T06:24:49.583Z,2.85
2018-02-20T06:27:25.406Z,2.73
2018-02-20T06:29:56.539Z,2.86
2018-02-20T06:32:27.611Z,2.86
2018-02-20T06:34:58.392Z,2.90
2018-02-20T06:37:29.923Z,2.83
2018-02-20T06:40:03.803Z,2.82
2018-02-20T06:42:35.679Z,2.89
2018-02-20T06:45:12.599Z,2.89
2018-02-20T06:50:27.742Z,3.05
2018-02-20T06:53:03.503Z,3.04
2018-02-20T06:55:44.795Z,3.06
2018-02-20T06:58:20.553Z,3.03
2018-02-20T07:01:03.391Z,3.09
2018-02-20T07:03:36.791Z,3.02
2018-02-20T07:06:23.813Z,2.99
2018-02-20T07:08:57.874Z,3.01
2018-02-20T07:11:39.879Z,3.03
2018-02-20T07:14:16.706Z,3.15
2018-02-20T07:16:56.511Z,3.32
2018-02-20T07:19:32.702Z,3.43
2018-02-20T07:22:08.988Z,3.52
2018-02-20T07:24:42.829Z,3.55
2018-02-20T07:27:13.851Z,3.56
2018-02-20T07:29:44.480Z,3.60
2018-02-20T07:32:23.326Z,3.70
2018-02-20T07:35:03.034Z,3.80
2018-02-20T07:37:36.222Z,3.60
2018-02-20T07:40:13.848Z,3.02
2018-02-20T07:42:50.561Z,3.25
2018-02-20T07:45:32.014Z,3.50
2018-02-20T07:48:07.323Z,3.58
2018-02-20T07:50:48.722Z,3.52
2018-02-20T07:53:20.682Z,3.53
2018-02-20T07:55:52.044Z,3.74
2018-02-20T07:58:22.785Z,3.96
2018-02-20T08:00:54.549Z,4.06
2018-02-20T08:03:31.848Z,4.35
2018-02-20T08:06:11.951Z,4.64
2018-02-20T08:08:43.762Z,4.82
2018-02-20T08:11:15.725Z,4.62
2018-02-20T08:13:46.110Z,4.74
2018-02-20T08:16:18.052Z,4.82
2018-02-20T08:18:48.954Z,5.14
2018-02-20T08:21:21.068Z,5.42
2018-02-20T08:23:52.369Z,5.40
2018-02-20T08:26:22.640Z,5.35
2018-02-20T08:28:52.989Z,5.31
2018-02-20T08:31:26.771Z,5.39
2018-02-20T08:34:01.894Z,5.55
2018-02-20T08:36:32.886Z,5.77
2018-02-20T08:39:05.326Z,6.01
2018-02-20T08:41:47.003Z,6.15
2018-02-20T08:44:23.474Z,6.40
2018-02-20T08:46:54.326Z,6.45
2018-02-20T08:49:27.002Z,6.62
2018-02-20T08:51:57.796Z,6.87
2018-02-20T08:54:29.437Z,7.28
2018-02-20T08:57:00.657Z,7.41
2018-02-20T08:59:31.248Z,7.94
2018-02-20T09:02:01.817Z,8.07
2018-02-20T09:04:33.172Z,8.38
2018-02-20T09:07:14.347Z,8.89
2018-02-20T09:10:04.442Z,9.36
2018-02-20T09:12:39.888Z,9.75
2018-02-20T09:15:17.028Z,10.00
2018-02-20T09:18:01.675Z,10.45
2018-02-20T09:20:36.860Z,10.88
2018-02-20T09:23:07.731Z,11.52
2018-02-20T09:25:37.981Z,11.69
2018-02-20T09:28:09.131Z,11.60
2018-02-20T09:30:40.504Z,11.64
2018-02-20T09:33:11.391Z,11.91
2018-02-20T09:35:42.838Z,12.50
2018-02-20T09:38:13.260Z,12.83
2018-02-20T09:40:44.261Z,13.22
2018-02-20T09:46:01.655Z,13.65
2018-02-20T09:48:32.196Z,13.56
2018-02-20T09:53:36.178Z,13.92
2018-02-20T09:56:07.157Z,14.06
2018-02-20T09:58:38.134Z,14.04
2018-02-20T10:01:13.243Z,14.04
2018-02-20T10:03:47.778Z,14.54
2018-02-20T10:06:20.406Z,14.71
2018-02-20T10:08:52.320Z,14.97
2018-02-20T10:11:22.541Z,15.70
2018-02-20T10:13:58.056Z,16.07
2018-02-20T10:16:32.456Z,15.78
2018-02-20T10:19:04.981Z,16.78
2018-02-20T10:21:40.622Z,16.85
2018-02-20T10:24:15.941Z,16.93
2018-02-20T10:26:51.621Z,16.73
2018-02-20T10:29:27.707Z,16.91
2018-02-20T10:32:00.225Z,16.20
2018-02-20T10:34:30.965Z,16.17
2018-02-20T10:37:01.575Z,16.21
2018-02-20T10:39:34.437Z,17.13
2018-02-20T10:42:11.282Z,17.43
2018-02-20T10:44:46.024Z,16.93
2018-02-20T10:47:24.542Z,16.23
2018-02-20T10:49:59.238Z,16.42
2018-02-20T10:52:37.956Z,16.13
2018-02-20T10:55:18.267Z,17.19
2018-02-20T10:57:55.859Z,17.42
2018-02-20T11:00:31.089Z,17.63
2018-02-20T11:03:09.626Z,17.84
2018-02-20T11:05:42.302Z,18.27
2018-02-20T11:08:13.842Z,18.49
2018-02-20T11:10:45.761Z,18.29
2018-02-20T11:16:57.551Z,17.07
2018-02-20T11:19:35.799Z,16.50
2018-02-20T11:22:09.767Z,15.92
2018-02-20T11:24:44.519Z,16.52
2018-02-20T11:27:18.180Z,17.19
2018-02-20T11:29:48.899Z,17.61
2018-02-20T11:32:21.522Z,17.74
2018-02-20T11:34:59.687Z,17.71
2018-02-20T11:37:36.754Z,17.85
2018-02-20T11:40:09.315Z,17.83
2018-02-20T11:42:40.703Z,16.92
2018-02-20T11:45:16.132Z,16.58
2018-02-20T11:47:48.828Z,16.78
2018-02-20T11:50:21.123Z,16.03
2018-02-20T11:52:55.285Z,16.60
2018-02-20T11:55:33.811Z,16.96
2018-02-20T11:58:07.828Z,16.93
2018-02-20T12:00:39.544Z,16.82
2018-02-20T12:03:19.161Z,16.94
2018-02-20T12:06:00.315Z,17.07
2018-02-20T12:08:39.623Z,16.78
2018-02-20T12:11:30.134Z,16.46
2018-02-20T12:14:08.858Z,16.67
2018-02-20T12:16:42.729Z,16.36
2018-02-20T12:19:15.712Z,16.41
2018-02-20T12:21:49.268Z,16.52
2018-02-20T12:24:22.387Z,16.33
2018-02-20T12:27:00.828Z,15.90
2018-02-20T12:29:40.666Z,15.06
2018-02-20T12:32:16.997Z,15.25
2018-02-20T12:34:50.815Z,15.51
2018-02-20T12:37:21.752Z,14.47
2018-02-20T12:39:56.080Z,14.35
2018-02-20T12:42:30.737Z,14.17
2018-02-20T12:45:22.375Z,14.19
2018-02-20T12:47:59.210Z,13.88
2018-02-20T12:50:32.994Z,13.72
2018-02-20T12:53:05.914Z,13.63
2018-02-20T12:55:37.921Z,13.02
2018-02-20T12:58:18.808Z,13.08
2018-02-20T13:00:53.903Z,12.84
2018-02-20T13:03:25.465Z,12.70
2018-02-20T13:06:07.993Z,12.54
2018-02-20T13:08:41.787Z,12.20
2018-02-20T13:13:59.799Z,12.00
2018-02-20T13:16:37.250Z,11.95
2018-02-20T13:19:09.988Z,12.02
2018-02-20T13:21:41.219Z,11.96
2018-02-20T13:24:18.469Z,11.77
2018-02-20T13:27:36.638Z,11.61
2018-02-20T13:38:57.228Z,10.79
2018-02-20T13:41:35.765Z,10.67
2018-02-20T13:44:08.421Z,10.69
2018-02-20T13:46:42.999Z,10.59
2018-02-20T13:49:16.852Z,10.58
2018-02-20T13:51:52.287Z,10.71
2018-02-20T13:54:36.649Z,10.62
2018-02-20T13:57:11.713Z,10.63
2018-02-20T13:59:46.131Z,10.86
2018-02-20T14:02:25.267Z,10.89
2018-02-20T14:05:01.736Z,10.89
2018-02-20T14:07:33.648Z,10.95
2018-02-20T14:10:09.385Z,11.09
2018-02-20T14:12:45.993Z,11.01
2018-02-20T14:15:22.572Z,11.05
2018-02-20T14:18:02.502Z,11.30
2018-02-20T14:23:40.414Z,11.11
2018-02-20T14:26:13.634Z,11.03
2018-02-20T14:28:45.047Z,11.02
2018-02-20T14:31:17.458Z,11.03
2018-02-20T14:33:54.387Z,10.95
2018-02-20T14:36:25.966Z,10.86
2018-02-20T14:38:57.736Z,10.88
2018-02-20T14:41:28.643Z,10.55
2018-02-20T14:44:01.018Z,10.46
2018-02-20T14:46:31.832Z,10.24
2018-02-20T14:49:04.398Z,10.29
2018-02-20T14:51:34.826Z,10.34
2018-02-20T14:56:50.234Z,10.28
2018-02-20T14:59:25.632Z,10.25
2018-02-20T15:02:05.260Z,10.11
2018-02-20T15:04:44.581Z,10.00
2018-02-20T15:07:24.916Z,9.94
2018-02-20T15:09:57.963Z,9.94
2018-02-20T15:12:39.020Z,10.04
2018-02-20T15:15:20.979Z,9.88
2018-02-20T15:17:53.573Z,9.88
2018-02-20T15:20:29.577Z,9.82
2018-02-20T15:23:05.180Z,9.78
2018-02-20T15:25:37.764Z,9.55
2018-02-20T15:28:13.239Z,9.38
2018-02-20T15:30:49.676Z,9.48
2018-02-20T15:33:26.775Z,9.41
2018-02-20T15:36:01.786Z,9.30
2018-02-20T15:38:35.276Z,9.38
2018-02-20T15:41:07.804Z,9.33
2018-02-20T15:43:42.712Z,9.37
2018-02-20T15:46:19.387Z,9.07
2018-02-20T15:51:39.397Z,8.75
2018-02-20T15:54:17.465Z,8.66
2018-02-20T15:56:53.970Z,8.53
2018-02-20T15:59:29.633Z,8.42
2018-02-20T16:02:06.864Z,8.35
2018-02-20T16:04:46.534Z,8.27
2018-02-20T16:07:18.786Z,8.32
2018-02-20T16:09:54.128Z,8.21
2018-02-20T16:15:19.966Z,8.15
2018-02-20T16:18:03.513Z,8.22
2018-02-20T16:20:45.049Z,8.12
2018-02-20T16:23:34.945Z,8.07
2018-02-20T16:26:13.550Z,8.05
2018-02-20T16:28:55.776Z,7.99
2018-02-20T16:31:34.771Z,7.93
2018-02-20T17:16:38.877Z,6.20
2018-02-20T17:19:16.138Z,6.37
2018-02-20T17:21:52.771Z,6.51
2018-02-20T17:24:42.623Z,6.65
2018-02-20T17:27:33.372Z,6.72
2018-02-20T17:30:14.188Z,6.76
2018-02-20T17:32:52.789Z,6.92
2018-02-20T17:35:28.463Z,6.90
2018-02-20T17:38:02.594Z,6.92
2018-02-20T17:40:33.793Z,6.90
2018-02-20T17:43:11.527Z,6.78
2018-02-20T17:45:45.789Z,6.76
2018-02-20T17:48:25.135Z,6.74
2018-02-20T17:51:01.108Z,6.75
2018-02-20T17:53:32.061Z,6.67
2018-02-20T17:56:04.829Z,6.61
2018-02-20T17:58:39.395Z,6.62
2018-02-20T18:01:13.449Z,6.60
2018-02-20T18:03:47.361Z,6.56
2018-02-20T18:06:29.094Z,6.57
2018-02-20T18:09:07.648Z,6.60
2018-02-20T18:11:44.824Z,6.54
2018-02-20T18:14:17.275Z,6.44
2018-02-20T18:16:59.558Z,6.38
2018-02-20T18:19:39.811Z,6.36
2018-02-20T18:22:31.393Z,6.08
2018-02-20T18:25:04.490Z,6.36
2018-02-20T18:27:42.413Z,6.39
2018-02-20T18:30:18.443Z,1.67
2018-02-20T18:32:49.514Z,6.39
2018-02-20T18:35:21.133Z,6.35
2018-02-20T18:37:52.061Z,6.36
2018-02-20T18:40:27.730Z,6.41
2018-02-20T18:42:59.200Z,6.33
2018-02-20T18:45:31.132Z,6.10
2018-02-20T18:48:03.242Z,6.14
2018-02-20T18:50:35.331Z,6.12
2018-02-20T18:53:13.829Z,6.13
2018-02-20T18:55:55.364Z,6.18
2018-02-20T18:58:26.406Z,6.09
2018-02-20T19:00:58.349Z,6.00
2018-02-20T19:03:29.538Z,6.07
2018-02-20T19:06:01.284Z,6.07
2018-02-20T19:08:32.088Z,6.20
2018-02-20T19:11:06.432Z,6.12
2018-02-20T19:13:39.593Z,5.98
2018-02-20T19:16:11.120Z,6.05
2018-02-20T19:18:43.806Z,5.96
2018-02-20T19:21:15.260Z,5.98
2018-02-20T19:23:45.777Z,5.97
2018-02-20T19:26:16.390Z,5.98
2018-02-20T19:28:48.093Z,6.07
2018-02-20T19:31:19.822Z,6.05
2018-02-20T19:33:51.209Z,5.88
2018-02-20T19:36:21.921Z,5.80
2018-02-20T19:38:52.364Z,5.78
2018-02-20T19:41:23.121Z,5.72
2018-02-20T19:44:03.931Z,5.57
2018-02-20T19:46:35.610Z,5.64
2018-02-20T19:49:06.772Z,5.70
2018-02-20T19:51:38.482Z,5.65
2018-02-20T19:54:09.830Z,5.53
2018-02-20T19:56:41.277Z,5.50
2018-02-20T19:59:11.956Z,5.41
2018-02-20T20:01:43.126Z,5.67
2018-02-20T20:04:14.485Z,5.62
2018-02-20T20:06:45.371Z,5.62
2018-02-20T20:09:16.329Z,5.57
2018-02-20T20:11:46.990Z,5.79
2018-02-20T20:14:17.771Z,5.65
2018-02-20T20:16:51.398Z,5.55
2018-02-20T20:19:22.394Z,5.51
2018-02-20T20:21:53.497Z,5.55
2018-02-20T20:24:25.312Z,5.59
2018-02-20T20:26:56.338Z,5.49
2018-02-20T20:29:31.745Z,5.43
2018-02-20T20:32:03.435Z,5.48
2018-02-20T20:34:33.920Z,5.41
2018-02-20T20:37:06.274Z,5.36
2018-02-20T20:39:36.692Z,5.26
2018-02-20T20:42:08.929Z,5.38
2018-02-20T20:44:40.138Z,5.37
2018-02-20T20:47:11.100Z,5.42
2018-02-20T20:49:43.569Z,5.41
2018-02-20T20:52:14.356Z,5.33
2018-02-20T20:54:45.096Z,5.35
2018-02-20T20:57:15.586Z,5.38
2018-02-20T20:59:47.934Z,5.34
2018-02-20T21:02:19.144Z,5.36
2018-02-20T21:04:50.525Z,5.23
2018-02-20T21:07:23.013Z,5.28
2018-02-20T21:09:54.473Z,5.28
2018-02-20T21:12:28.974Z,5.33
2018-02-20T21:15:01.167Z,5.39
2018-02-20T21:17:33.180Z,5.20
2018-02-20T21:20:03.911Z,5.16
2018-02-20T21:22:39.379Z,5.07
2018-02-20T21:25:10.134Z,4.93
2018-02-20T21:27:41.292Z,4.85
2018-02-20T21:30:22.556Z,4.92
2018-02-20T21:32:56.264Z,4.90
2018-02-20T21:35:27.609Z,4.96
2018-02-20T21:37:58.655Z,4.90
2018-02-20T21:40:30.307Z,4.95
2018-02-20T21:43:00.739Z,4.58
2018-02-20T21:45:31.722Z,4.81
2018-02-20T21:48:03.633Z,4.68
2018-02-20T21:50:34.902Z,4.64
2018-02-20T21:53:05.981Z,4.79
2018-02-20T21:55:36.634Z,4.76
2018-02-20T21:58:06.993Z,4.78
2018-02-20T22:00:38.069Z,4.81
2018-02-20T22:03:08.385Z,4.71
2018-02-20T22:05:38.859Z,4.73
2018-02-20T22:08:09.247Z,4.73
2018-02-20T22:10:39.534Z,4.72
2018-02-20T22:13:10.124Z,4.74
2018-02-20T22:15:40.879Z,4.69
2018-02-20T22:18:11.974Z,4.74
2018-02-20T22:20:43.216Z,4.80
2018-02-20T22:23:14.382Z,4.70
2018-02-20T22:25:45.431Z,4.53
2018-02-20T22:28:16.259Z,4.51
2018-02-20T22:30:48.633Z,4.59
2018-02-20T22:33:19.018Z,4.39
2018-02-20T22:35:49.280Z,4.51
2018-02-20T22:38:19.894Z,4.40
2018-02-20T22:40:50.632Z,4.51
2018-02-20T22:43:22.167Z,4.54
2018-02-20T22:45:53.158Z,4.38
2018-02-20T22:48:25.930Z,4.46
2018-02-20T22:50:56.766Z,4.43
2018-02-20T22:53:28.354Z,4.36
2018-02-20T22:55:59.886Z,4.47
2018-02-20T22:58:30.179Z,4.49
2018-02-20T23:01:02.533Z,4.40
2018-02-20T23:03:33.018Z,4.37
2018-02-20T23:06:04.175Z,4.42
2018-02-20T23:08:34.572Z,4.32
2018-02-20T23:11:04.807Z,4.20
2018-02-20T23:13:36.101Z,4.08
2018-02-20T23:16:06.409Z,4.07
2018-02-20T23:18:36.759Z,4.06
2018-02-20T23:21:09.913Z,4.06
2018-02-20T23:23:40.310Z,4.07
2018-02-20T23:26:10.780Z,4.00
2018-02-20T23:28:45.059Z,3.96
2018-02-20T23:31:15.843Z,3.83
2018-02-20T23:33:46.159Z,3.92
2018-02-20T23:36:16.571Z,3.80
2018-02-20T23:40:03.522Z,3.74
2018-02-20T23:42:34.535Z,3.64
2018-02-20T23:45:18.437Z,3.63
2018-02-20T23:52:51.118Z,3.63
2018-02-20T23:55:24.074Z,3.12
2018-02-20T23:58:07.001Z,3.17
